Time;durP1;ratioP1;P1;durP2;ratioP2;P2;SDS_P1;SDS_P2;PMS_P1;PMS_P2;Temp;Humidity;BMP_temperature;BMP_pressure;BME280_temperature;BME280_humidity;BME280_pressure;Samples;Min_cycle;Max_cycle;Signal;HPM_P1;HPM_P2
2021/08/27 00:01:17;;;;;;;10.38;3.65;;;12.30;99.90;;;;;;5034855;28;20064;-80
2021/08/27 00:03:42;;;;;;;8.80;2.67;;;12.40;99.90;;;;;;5049722;28;20061;-78
2021/08/27 00:06:08;;;;;;;8.95;3.08;;;12.30;99.90;;;;;;5054685;28;20385;-78
2021/08/27 00:08:34;;;;;;;18.58;3.42;;;12.40;99.90;;;;;;5054625;28;20032;-78
2021/08/27 00:11:00;;;;;;;6.50;3.55;;;12.30;99.90;;;;;;5054702;28;20029;-78
2021/08/27 00:13:25;;;;;;;13.15;3.10;;;12.30;99.90;;;;;;5041653;28;20025;-79
2021/08/27 00:15:51;;;;;;;12.07;4.28;;;12.30;99.90;;;;;;5039127;28;20477;-79
2021/08/27 00:18:17;;;;;;;5.60;2.47;;;12.30;99.90;;;;;;5043955;28;20037;-79
2021/08/27 00:20:43;;;;;;;14.57;3.40;;;12.20;99.90;;;;;;5034650;28;20371;-79
2021/08/27 00:23:08;;;;;;;14.30;3.38;;;12.20;99.90;;;;;;5040720;28;20076;-78
2021/08/27 00:25:34;;;;;;;6.68;3.10;;;12.20;99.90;;;;;;5054101;28;20405;-79
2021/08/27 00:28:00;;;;;;;14.10;3.08;;;12.20;99.90;;;;;;5052884;28;20442;-79
2021/08/27 00:30:25;;;;;;;11.05;2.92;;;12.10;99.90;;;;;;5054299;28;20030;-79
2021/08/27 00:32:51;;;;;;;13.43;3.28;;;12.10;99.90;;;;;;5053211;28;20028;-79
2021/08/27 00:35:16;;;;;;;10.73;2.75;;;12.10;99.90;;;;;;5034041;28;20026;-79
2021/08/27 00:37:42;;;;;;;9.35;2.90;;;12.10;99.90;;;;;;5034180;28;20462;-78
2021/08/27 00:43:30;;;;;;;9.68;3.08;;;12.10;99.90;;;;;;5037411;28;20031;-79
2021/08/27 00:45:56;;;;;;;10.25;3.22;;;12.10;99.90;;;;;;5052822;28;20033;-78
2021/08/27 00:48:21;;;;;;;11.43;3.67;;;12.20;99.90;;;;;;5053829;28;20052;-79
2021/08/27 00:50:47;;;;;;;10.20;3.28;;;12.40;99.90;;;;;;5052662;28;20474;-78
2021/08/27 00:53:14;;;;;;;9.98;3.53;;;12.50;99.90;;;;;;5053743;28;20477;-79
2021/08/27 00:55:41;;;;;;;9.90;2.88;;;12.60;99.90;;;;;;5033913;28;20040;-79
2021/08/27 00:58:06;;;;;;;11.98;3.28;;;12.60;99.90;;;;;;5033755;28;20624;-79
2021/08/27 01:00:33;;;;;;;18.95;4.20;;;12.70;99.90;;;;;;5033895;28;20036;-79
2021/08/27 01:02:59;;;;;;;13.38;3.00;;;12.70;99.90;;;;;;5032541;28;20021;-79
2021/08/27 01:05:25;;;;;;;7.68;3.25;;;12.80;99.90;;;;;;5046416;28;20021;-79
2021/08/27 01:08:10;;;;;;;12.38;2.67;;;12.80;99.90;;;;;;5053431;28;20139;-79
2021/08/27 01:10:41;;;;;;;12.55;3.92;;;13.00;99.90;;;;;;5053610;28;20021;-79
2021/08/27 01:13:31;;;;;;;17.63;4.78;;;13.00;99.90;;;;;;5053560;28;20090;-79
2021/08/27 01:16:14;;;;;;;8.23;2.97;;;13.10;99.90;;;;;;5038052;28;20482;-79
2021/08/27 01:18:50;;;;;;;10.05;3.00;;;13.20;99.90;;;;;;5043674;28;20056;-79
2021/08/27 01:22:07;;;;;;;11.10;3.47;;;13.20;99.90;;;;;;5052074;28;20485;-79
2021/08/27 01:24:34;;;;;;;16.35;3.28;;;13.20;99.90;;;;;;5039922;28;20045;-79
2021/08/27 01:27:03;;;;;;;13.48;2.70;;;13.20;99.90;;;;;;5052265;28;20025;-79
2021/08/27 01:29:40;;;;;;;8.38;2.97;;;13.30;99.90;;;;;;5042731;28;20137;-79
2021/08/27 01:32:15;;;;;;;11.98;2.88;;;13.30;99.90;;;;;;5031983;28;20478;-79
2021/08/27 01:34:44;;;;;;;12.93;3.90;;;13.30;99.90;;;;;;5032853;28;20029;-79
2021/08/27 01:37:22;;;;;;;12.07;3.70;;;13.40;99.90;;;;;;5051758;28;20431;-79
2021/08/27 01:39:54;;;;;;;14.98;3.75;;;13.50;99.90;;;;;;5051801;28;20416;-79
2021/08/27 01:42:23;;;;;;;16.70;2.87;;;13.50;99.90;;;;;;5051118;28;20040;-79
2021/08/27 01:44:51;;;;;;;12.98;3.03;;;13.40;99.90;;;;;;5051475;28;20025;-79
2021/08/27 01:47:21;;;;;;;14.43;3.15;;;13.40;99.90;;;;;;5052550;28;20078;-78
2021/08/27 01:49:48;;;;;;;8.15;2.70;;;13.30;99.90;;;;;;5051493;28;20021;-78
2021/08/27 01:52:15;;;;;;;9.90;2.80;;;13.20;99.90;;;;;;5048649;28;20033;-79
2021/08/27 01:54:42;;;;;;;7.65;2.85;;;13.00;99.90;;;;;;5031287;28;20021;-79
2021/08/27 01:57:09;;;;;;;10.30;3.20;;;12.90;99.90;;;;;;5031191;28;20040;-79
2021/08/27 01:59:38;;;;;;;11.40;3.15;;;12.90;99.90;;;;;;5032679;28;20026;-78
2021/08/27 02:02:06;;;;;;;14.30;3.70;;;12.90;99.90;;;;;;5031355;28;20112;-79
2021/08/27 02:04:34;;;;;;;8.63;3.20;;;12.80;99.90;;;;;;5032446;28;20108;-79
2021/08/27 02:07:02;;;;;;;10.32;3.05;;;12.80;99.90;;;;;;5032633;28;20021;-79
2021/08/27 02:09:28;;;;;;;11.23;2.58;;;12.70;99.90;;;;;;5031190;28;20026;-78
2021/08/27 02:11:54;;;;;;;8.70;2.65;;;12.70;99.90;;;;;;5032415;28;20056;-78
2021/08/27 02:14:21;;;;;;;5.88;2.83;;;12.70;99.90;;;;;;5047204;28;20064;-78
2021/08/27 02:16:46;;;;;;;11.50;3.28;;;12.70;99.90;;;;;;5050938;28;20074;-79
2021/08/27 02:19:12;;;;;;;14.15;2.83;;;12.60;99.90;;;;;;5052229;28;20024;-78
2021/08/27 02:21:44;;;;;;;12.35;3.17;;;12.60;99.90;;;;;;5052315;28;20029;-79
2021/08/27 02:24:14;;;;;;;16.33;3.10;;;12.50;99.90;;;;;;5050360;28;20032;-79
2021/08/27 02:26:45;;;;;;;14.98;2.67;;;12.60;99.90;;;;;;5051946;28;20028;-79
2021/08/27 02:29:11;;;;;;;19.55;2.65;;;12.60;99.90;;;;;;5050829;28;20488;-78
2021/08/27 02:31:37;;;;;;;7.03;2.47;;;12.60;99.90;;;;;;5052059;28;20496;-79
2021/08/27 02:34:05;;;;;;;13.63;3.30;;;12.50;99.90;;;;;;5044280;28;20034;-78
2021/08/27 02:36:31;;;;;;;9.75;2.83;;;12.50;99.90;;;;;;5031988;28;20021;-79
2021/08/27 02:38:58;;;;;;;17.02;2.72;;;12.60;99.90;;;;;;5032077;28;20505;-79
2021/08/27 02:41:24;;;;;;;11.48;3.03;;;12.60;99.90;;;;;;5030696;28;20030;-79
2021/08/27 02:43:50;;;;;;;8.20;3.20;;;12.60;99.90;;;;;;5034059;28;20028;-79
2021/08/27 02:46:15;;;;;;;8.13;2.88;;;12.70;99.90;;;;;;5050360;28;20036;-79
2021/08/27 02:48:41;;;;;;;12.68;2.65;;;12.80;99.90;;;;;;5051782;28;20033;-78
2021/08/27 02:51:15;;;;;;;10.05;2.88;;;12.80;99.90;;;;;;5051822;28;20025;-78
2021/08/27 02:53:44;;;;;;;12.68;2.60;;;12.80;99.90;;;;;;5051730;28;20086;-79
2021/08/27 02:56:18;;;;;;;8.82;2.60;;;13.10;99.90;;;;;;5031993;28;20035;-79
2021/08/27 02:58:47;;;;;;;14.90;3.00;;;12.90;99.90;;;;;;5031862;28;20561;-79
2021/08/27 03:01:24;;;;;;;9.48;2.75;;;13.00;99.90;;;;;;5031782;28;20047;-79
2021/08/27 03:04:13;;;;;;;10.00;2.45;;;13.00;99.90;;;;;;5031640;28;20018;-79
2021/08/27 03:06:54;;;;;;;6.43;2.22;;;13.00;99.90;;;;;;5034207;28;20440;-78
2021/08/27 03:09:24;;;;;;;4.65;2.03;;;13.00;99.90;;;;;;5033511;28;20027;-79
2021/08/27 03:12:00;;;;;;;9.82;3.10;;;13.00;99.90;;;;;;5035784;28;20048;-79
2021/08/27 03:14:30;;;;;;;8.35;1.92;;;12.90;99.90;;;;;;5035644;28;20389;-78
2021/08/27 03:17:01;;;;;;;14.43;3.03;;;12.90;99.90;;;;;;5051052;28;20028;-79
2021/08/27 03:19:31;;;;;;;11.15;2.22;;;12.90;99.90;;;;;;5055693;28;20547;-79
2021/08/27 03:22:07;;;;;;;8.93;2.10;;;12.90;99.90;;;;;;5055616;28;20032;-79
2021/08/27 03:24:36;;;;;;;8.30;2.60;;;13.10;99.90;;;;;;5055362;28;20036;-80
2021/08/27 03:27:34;;;;;;;8.52;2.22;;;13.00;99.90;;;;;;5037693;28;20053;-78
2021/08/27 03:30:05;;;;;;;11.15;2.85;;;13.00;99.90;;;;;;5030311;28;20041;-79
2021/08/27 03:32:30;;;;;;;8.13;2.45;;;13.00;99.90;;;;;;5035487;28;20029;-79
2021/08/27 03:34:57;;;;;;;7.40;2.60;;;13.00;99.90;;;;;;5035248;28;20021;-79
2021/08/27 03:37:24;;;;;;;10.25;2.80;;;12.90;99.90;;;;;;5049970;28;20029;-79
2021/08/27 03:39:51;;;;;;;12.25;2.13;;;12.80;99.90;;;;;;5055161;28;20491;-79
2021/08/27 03:42:18;;;;;;;12.80;2.58;;;12.90;99.90;;;;;;5055285;28;20025;-79
2021/08/27 03:44:46;;;;;;;9.73;2.20;;;12.90;99.90;;;;;;5054945;28;20024;-78
2021/08/27 03:47:15;;;;;;;4.43;1.95;;;12.90;99.90;;;;;;5041877;28;20053;-79
2021/08/27 03:49:41;;;;;;;9.05;2.33;;;13.00;99.90;;;;;;5034020;28;20033;-78
2021/08/27 03:52:08;;;;;;;14.57;3.42;;;13.00;99.90;;;;;;5035076;28;20033;-79
2021/08/27 03:54:34;;;;;;;12.63;3.33;;;13.10;99.90;;;;;;5033541;28;20022;-79
2021/08/27 03:57:02;;;;;;;4.70;1.80;;;13.10;99.90;;;;;;5041994;28;20025;-79
2021/08/27 03:59:29;;;;;;;7.75;2.10;;;13.10;99.90;;;;;;5054872;28;20033;-78
2021/08/27 04:01:55;;;;;;;7.03;1.70;;;13.00;99.90;;;;;;5054847;28;20108;-79
2021/08/27 04:04:21;;;;;;;6.50;2.05;;;13.00;99.90;;;;;;5053312;28;20029;-79
2021/08/27 04:07:00;;;;;;;11.07;2.13;;;13.00;99.90;;;;;;5052935;28;20029;-79
2021/08/27 04:09:28;;;;;;;14.15;2.17;;;12.90;99.90;;;;;;5053499;28;20104;-79
2021/08/27 04:11:54;;;;;;;11.00;2.65;;;12.90;99.90;;;;;;5054716;28;20025;-79
2021/08/27 04:14:20;;;;;;;9.27;2.72;;;12.90;99.90;;;;;;5054490;28;20587;-79
2021/08/27 04:16:46;;;;;;;9.07;2.15;;;12.90;99.90;;;;;;5053524;28;20029;-79
2021/08/27 04:19:14;;;;;;;7.03;2.67;;;12.90;99.90;;;;;;5034573;28;20040;-79
2021/08/27 04:21:41;;;;;;;16.60;2.78;;;12.80;99.90;;;;;;5034590;28;20072;-79
2021/08/27 04:24:07;;;;;;;5.50;2.08;;;12.80;99.90;;;;;;5034321;28;20025;-79
2021/08/27 04:26:33;;;;;;;9.60;2.35;;;12.70;99.90;;;;;;5033077;28;20041;-79
2021/08/27 04:28:59;;;;;;;12.13;2.63;;;12.70;99.90;;;;;;5049107;28;20037;-79
2021/08/27 04:31:25;;;;;;;12.30;3.10;;;12.80;99.90;;;;;;5054285;28;20112;-79
2021/08/27 04:33:51;;;;;;;11.00;3.17;;;12.90;99.90;;;;;;5053978;28;20481;-79
2021/08/27 04:36:16;;;;;;;15.90;2.97;;;12.80;99.90;;;;;;5054198;28;20035;-79
2021/08/27 04:38:42;;;;;;;9.60;2.20;;;12.90;99.90;;;;;;5041586;28;20055;-78
2021/08/27 04:41:08;;;;;;;8.50;2.63;;;12.90;99.90;;;;;;5034206;28;20029;-78
2021/08/27 04:43:33;;;;;;;11.00;3.00;;;13.00;99.90;;;;;;5053702;28;20388;-79
2021/08/27 04:45:59;;;;;;;8.35;3.10;;;13.00;99.90;;;;;;5053940;28;20076;-78
2021/08/27 04:48:25;;;;;;;7.82;3.05;;;13.00;99.90;;;;;;5046594;28;20401;-79
2021/08/27 04:50:51;;;;;;;12.00;3.08;;;13.00;99.90;;;;;;5032768;28;20370;-79
2021/08/27 04:53:16;;;;;;;4.10;2.00;;;13.10;99.90;;;;;;5047440;28;20036;-79
2021/08/27 04:55:42;;;;;;;14.90;3.15;;;13.10;99.90;;;;;;5053645;28;20052;-79
2021/08/27 04:58:07;;;;;;;10.80;2.42;;;13.20;99.90;;;;;;5052886;28;20029;-79
2021/08/27 05:00:33;;;;;;;5.15;2.33;;;13.30;99.90;;;;;;5033875;28;20025;-79
2021/08/27 05:02:58;;;;;;;6.55;2.53;;;13.30;99.90;;;;;;5033845;28;20580;-79
2021/08/27 05:05:24;;;;;;;10.82;3.08;;;13.40;99.90;;;;;;5033538;28;20104;-80
2021/08/27 05:07:50;;;;;;;7.53;2.60;;;13.40;99.90;;;;;;5033627;28;20064;-79
2021/08/27 05:10:16;;;;;;;9.60;2.75;;;13.50;99.90;;;;;;5048747;28;20025;-79
2021/08/27 05:12:41;;;;;;;5.40;2.13;;;13.70;99.90;;;;;;5052349;28;20075;-79
2021/08/27 05:15:08;;;;;;;5.32;2.45;;;13.70;99.90;;;;;;5053355;28;20028;-79
2021/08/27 05:17:34;;;;;;;8.95;2.33;;;13.70;99.90;;;;;;5053248;28;20092;-79
2021/08/27 05:20:00;;;;;;;7.13;3.45;;;13.80;99.90;;;;;;5043369;28;20026;-79
2021/08/27 05:22:26;;;;;;;8.77;3.63;;;13.80;99.90;;;;;;5032117;28;20056;-79
2021/08/27 05:24:51;;;;;;;14.38;2.80;;;13.90;99.90;;;;;;5033090;28;20061;-79
2021/08/27 05:27:17;;;;;;;9.68;2.63;;;13.90;99.90;;;;;;5033327;28;20037;-79
2021/08/27 05:29:42;;;;;;;10.45;3.13;;;13.90;99.90;;;;;;5036191;28;20052;-80
2021/08/27 05:32:08;;;;;;;6.00;2.28;;;13.90;99.90;;;;;;5052532;28;20493;-79
2021/08/27 05:34:34;;;;;;;5.53;2.33;;;14.00;99.90;;;;;;5051819;28;20036;-79
2021/08/27 05:36:59;;;;;;;7.38;2.63;;;14.10;99.90;;;;;;5052974;28;20021;-80
2021/08/27 05:39:28;;;;;;;8.32;2.78;;;14.10;99.90;;;;;;5053033;28;20029;-79
2021/08/27 05:41:58;;;;;;;6.80;2.38;;;14.10;99.90;;;;;;5044230;28;20086;-79
2021/08/27 05:44:24;;;;;;;9.93;2.88;;;14.20;99.90;;;;;;5052814;28;20021;-79
2021/08/27 05:46:50;;;;;;;10.85;2.80;;;14.10;99.90;;;;;;5052721;28;20389;-81
2021/08/27 05:49:16;;;;;;;6.32;2.50;;;14.00;99.90;;;;;;5051779;28;20021;-80
2021/08/27 05:51:41;;;;;;;8.65;1.83;;;14.10;99.90;;;;;;5037434;28;20448;-82
2021/08/27 05:54:08;;;;;;;5.32;2.35;;;14.10;99.90;;;;;;5032625;28;20057;-81
2021/08/27 05:56:34;;;;;;;5.78;2.88;;;14.10;99.90;;;;;;5032697;28;20421;-80
2021/08/27 05:59:00;;;;;;;6.10;2.75;;;14.10;99.90;;;;;;5032764;28;20055;-79
2021/08/27 06:01:25;;;;;;;6.78;3.20;;;14.20;99.90;;;;;;5040313;28;20385;-79
2021/08/27 06:03:51;;;;;;;11.93;3.50;;;14.20;99.90;;;;;;5052036;28;20020;-80
2021/08/27 06:06:17;;;;;;;4.85;2.65;;;14.20;99.90;;;;;;5052178;28;20099;-79
2021/08/27 06:08:42;;;;;;;7.00;2.80;;;14.30;99.90;;;;;;5050913;28;20078;-79
2021/08/27 06:11:08;;;;;;;5.10;2.53;;;14.40;99.90;;;;;;5047406;28;20030;-79
2021/08/27 06:13:33;;;;;;;9.68;2.90;;;14.40;99.90;;;;;;5032305;28;20026;-79
2021/08/27 06:15:59;;;;;;;4.75;2.47;;;14.30;99.90;;;;;;5030696;28;20020;-79
2021/08/27 06:18:25;;;;;;;10.18;2.22;;;14.40;99.90;;;;;;5032216;28;20103;-80
2021/08/27 06:20:51;;;;;;;8.38;2.45;;;14.40;99.90;;;;;;5030900;28;20087;-79
2021/08/27 06:23:18;;;;;;;6.97;2.75;;;14.50;99.90;;;;;;5050197;28;20033;-80
2021/08/27 06:25:43;;;;;;;6.93;3.05;;;14.60;99.90;;;;;;5051738;28;20111;-79
2021/08/27 06:28:09;;;;;;;9.15;2.67;;;14.60;99.90;;;;;;5051868;28;20139;-79
2021/08/27 06:30:34;;;;;;;7.45;2.88;;;14.70;99.90;;;;;;5051884;28;20028;-79
2021/08/27 06:33:01;;;;;;;13.23;3.35;;;14.70;99.90;;;;;;5037432;28;20037;-80
2021/08/27 06:35:27;;;;;;;6.82;3.08;;;14.70;99.90;;;;;;5030646;28;20026;-79
2021/08/27 06:40:38;;;;;;;4.60;2.35;;;15.10;99.90;;;;;;5031958;28;20059;-80
2021/08/27 06:43:04;;;;;;;9.65;2.88;;;15.20;99.90;;;;;;5042575;28;20120;-79
2021/08/27 06:45:29;;;;;;;7.35;3.08;;;15.30;99.90;;;;;;5051599;28;20100;-80
2021/08/27 06:47:55;;;;;;;7.97;2.72;;;15.30;99.90;;;;;;5051706;28;20021;-80
2021/08/27 06:50:21;;;;;;;12.48;3.90;;;15.30;99.90;;;;;;5051699;28;20792;-79
2021/08/27 06:52:46;;;;;;;5.55;2.75;;;15.30;99.90;;;;;;5044783;28;20017;-80
2021/08/27 06:55:12;;;;;;;7.35;2.70;;;15.30;99.90;;;;;;5046935;28;20036;-79
2021/08/27 06:57:38;;;;;;;9.05;2.97;;;15.40;99.90;;;;;;5031487;28;20084;-80
2021/08/27 07:00:04;;;;;;;9.98;2.80;;;15.30;99.90;;;;;;5031753;28;20029;-80
2021/08/27 07:02:29;;;;;;;6.85;2.45;;;15.30;99.90;;;;;;5032902;28;20131;-80
2021/08/27 07:04:55;;;;;;;7.50;3.13;;;15.40;99.90;;;;;;5038056;28;20025;-80
2021/08/27 07:07:21;;;;;;;5.43;2.38;;;15.40;99.90;;;;;;5046709;28;20037;-79
2021/08/27 07:09:46;;;;;;;6.38;1.90;;;15.50;99.90;;;;;;5051414;28;20033;-79
2021/08/27 07:12:13;;;;;;;7.35;2.22;;;15.60;99.90;;;;;;5051516;28;20460;-79
2021/08/27 07:14:39;;;;;;;5.05;2.13;;;15.70;99.90;;;;;;5033392;28;20022;-80
2021/08/27 07:17:05;;;;;;;4.32;1.65;;;15.80;99.90;;;;;;5031616;28;20025;-80
2021/08/27 07:19:30;;;;;;;5.65;2.15;;;15.70;99.90;;;;;;5031649;28;20517;-79
2021/08/27 07:21:56;;;;;;;6.13;2.03;;;15.60;99.90;;;;;;5030316;28;20028;-80
2021/08/27 07:24:21;;;;;;;17.20;4.75;;;15.60;99.90;;;;;;5037893;28;20061;-79
2021/08/27 07:26:47;;;;;;;6.88;2.20;;;15.50;99.90;;;;;;5031233;28;20059;-80
2021/08/27 07:29:12;;;;;;;5.05;1.90;;;15.50;99.90;;;;;;5031449;28;20025;-80
2021/08/27 07:31:38;;;;;;;5.60;2.20;;;15.50;99.90;;;;;;5028849;28;20485;-79
2021/08/27 07:34:03;;;;;;;4.85;2.40;;;15.60;99.90;;;;;;5031229;28;20029;-79
2021/08/27 07:36:29;;;;;;;5.63;2.13;;;15.50;99.90;;;;;;5030839;28;20034;-79
2021/08/27 07:38:54;;;;;;;9.43;2.65;;;15.50;99.90;;;;;;5031399;28;20036;-78
2021/08/27 07:41:20;;;;;;;5.88;2.40;;;15.60;99.90;;;;;;5031179;28;20433;-79
2021/08/27 07:43:45;;;;;;;12.10;2.30;;;15.60;99.90;;;;;;5030057;28;20876;-79
2021/08/27 07:46:11;;;;;;;8.05;3.08;;;15.60;99.90;;;;;;5031298;28;20083;-80
2021/08/27 07:48:36;;;;;;;4.22;2.70;;;15.70;99.90;;;;;;5029866;28;20446;-79
2021/08/27 07:51:02;;;;;;;9.60;2.95;;;15.60;99.90;;;;;;5031343;28;20385;-79
2021/08/27 07:53:28;;;;;;;6.20;2.47;;;15.60;99.90;;;;;;5031201;28;20022;-80
2021/08/27 07:55:53;;;;;;;10.77;2.67;;;15.60;99.90;;;;;;5049541;28;20542;-79
2021/08/27 07:58:19;;;;;;;11.45;2.85;;;15.50;99.90;;;;;;5054887;28;20017;-79
2021/08/27 08:00:45;;;;;;;10.43;3.03;;;15.60;99.90;;;;;;5054849;28;20055;-79
2021/08/27 08:03:10;;;;;;;12.65;3.20;;;15.60;99.90;;;;;;5054785;28;20029;-79
2021/08/27 08:05:36;;;;;;;5.88;3.17;;;15.60;99.90;;;;;;5044243;28;20052;-79
2021/08/27 08:08:02;;;;;;;4.75;2.80;;;15.80;99.90;;;;;;5034806;28;20094;-78
2021/08/27 08:10:28;;;;;;;13.40;2.97;;;15.60;99.90;;;;;;5034682;28;20537;-78
2021/08/27 08:12:53;;;;;;;15.27;4.07;;;15.60;99.90;;;;;;5034543;28;20061;-79
2021/08/27 08:15:21;;;;;;;9.90;3.20;;;15.60;99.90;;;;;;5037684;28;20021;-79
2021/08/27 08:17:47;;;;;;;8.40;2.75;;;15.50;99.90;;;;;;5054524;28;20021;-79
2021/08/27 08:20:13;;;;;;;11.68;3.40;;;15.60;99.90;;;;;;5054461;28;20036;-79
2021/08/27 08:22:38;;;;;;;9.90;3.63;;;15.70;99.90;;;;;;5054441;28;20381;-78
2021/08/27 08:25:04;;;;;;;18.38;3.92;;;15.80;99.90;;;;;;5038083;28;20033;-80
2021/08/27 08:27:33;;;;;;;10.07;3.75;;;15.80;99.90;;;;;;5046554;28;20032;-78
2021/08/27 08:30:00;;;;;;;9.57;3.28;;;15.90;99.90;;;;;;5048917;28;20025;-79
2021/08/27 08:32:25;;;;;;;6.85;3.28;;;15.80;99.90;;;;;;5050094;28;20025;-79
2021/08/27 08:34:51;;;;;;;10.05;3.08;;;15.80;99.90;;;;;;5048361;28;20519;-79
2021/08/27 08:37:16;;;;;;;10.70;3.78;;;15.70;99.90;;;;;;5049670;28;20029;-80
2021/08/27 08:39:42;;;;;;;12.45;3.65;;;16.00;99.90;;;;;;5045120;28;20029;-80
2021/08/27 08:42:08;;;;;;;13.43;3.80;;;15.80;99.90;;;;;;5049870;28;20029;-80
2021/08/27 08:44:34;;;;;;;7.70;3.35;;;15.70;99.90;;;;;;5048216;28;20556;-80
2021/08/27 08:47:01;;;;;;;10.63;3.92;;;15.70;99.90;;;;;;5048952;28;20037;-80
2021/08/27 08:49:29;;;;;;;9.65;3.80;;;15.70;99.90;;;;;;5049511;28;20070;-79
2021/08/27 08:51:55;;;;;;;14.10;4.07;;;15.70;99.90;;;;;;5048101;28;20029;-80
2021/08/27 08:54:21;;;;;;;6.07;3.10;;;15.70;99.90;;;;;;5048385;28;20033;-80
2021/08/27 08:56:47;;;;;;;8.00;3.38;;;15.80;99.90;;;;;;5044235;28;22133;-79
2021/08/27 08:59:14;;;;;;;12.02;3.88;;;15.90;99.90;;;;;;5048072;28;21246;-80
2021/08/27 09:01:40;;;;;;;7.75;3.25;;;16.00;99.90;;;;;;5047757;28;20025;-80
2021/08/27 09:04:05;;;;;;;8.95;3.53;;;16.00;99.90;;;;;;5049400;28;20025;-80
2021/08/27 09:06:33;;;;;;;9.32;3.78;;;16.10;99.90;;;;;;5046556;28;20512;-80
2021/08/27 09:09:02;;;;;;;6.07;3.58;;;16.10;99.90;;;;;;5044929;28;20056;-81
2021/08/27 09:11:28;;;;;;;8.88;3.63;;;16.10;99.90;;;;;;5038523;28;20066;-80
2021/08/27 09:14:05;;;;;;;7.15;3.85;;;16.20;99.90;;;;;;5033732;28;20405;-80
2021/08/27 09:16:33;;;;;;;13.80;3.47;;;16.20;99.90;;;;;;5033551;28;20528;-81
2021/08/27 09:19:00;;;;;;;10.60;3.83;;;16.20;99.90;;;;;;5033369;28;20486;-81
2021/08/27 09:21:47;;;;;;;12.32;4.15;;;16.10;99.90;;;;;;5034470;28;20396;-80
2021/08/27 09:24:17;;;;;;;9.65;3.92;;;16.10;99.90;;;;;;5041204;28;20114;-80
2021/08/27 09:26:47;;;;;;;12.52;4.28;;;16.00;99.90;;;;;;5053301;28;20037;-80
2021/08/27 09:29:31;;;;;;;11.07;4.30;;;16.10;99.90;;;;;;5053198;28;20039;-79
2021/08/27 09:31:56;;;;;;;8.40;3.67;;;15.80;99.90;;;;;;5050996;28;20022;-80
2021/08/27 09:34:27;;;;;;;11.95;3.63;;;15.80;99.90;;;;;;5040478;28;20164;-79
2021/08/27 09:36:57;;;;;;;11.18;4.00;;;15.90;99.90;;;;;;5049444;28;20029;-80
2021/08/27 09:39:31;;;;;;;9.40;3.75;;;16.30;99.90;;;;;;5053057;28;20028;-82
2021/08/27 09:41:57;;;;;;;12.73;4.05;;;16.40;99.90;;;;;;5052986;28;20080;-79
2021/08/27 09:44:23;;;;;;;9.55;4.25;;;16.70;99.90;;;;;;5051207;28;20120;-83
2021/08/27 09:46:49;;;;;;;10.82;4.07;;;16.80;99.90;;;;;;5046209;28;20040;-84
2021/08/27 09:49:28;;;;;;;14.20;5.10;;;16.90;99.90;;;;;;5036124;28;20029;-83
2021/08/27 09:51:55;;;;;;;15.15;3.05;;;16.90;99.90;;;;;;5047446;28;20071;-83
2021/08/27 09:54:35;;;;;;;16.13;3.90;;;16.80;99.90;;;;;;5047185;28;20033;-84
2021/08/27 09:57:03;;;;;;;8.77;3.25;;;16.90;99.90;;;;;;5045134;28;20067;-85
2021/08/27 09:59:34;;;;;;;9.65;3.28;;;16.90;99.90;;;;;;5048111;28;20032;-84
2021/08/27 10:02:01;;;;;;;12.65;3.58;;;17.10;99.90;;;;;;5048641;28;20393;-86
2021/08/27 10:04:27;;;;;;;9.05;3.13;;;17.10;99.90;;;;;;5054241;28;20516;-85
2021/08/27 10:06:52;;;;;;;9.63;3.40;;;17.20;99.90;;;;;;5047527;28;20055;-85
2021/08/27 10:09:18;;;;;;;11.48;3.70;;;17.10;99.90;;;;;;5039743;28;20382;-84
2021/08/27 10:11:44;;;;;;;9.13;3.15;;;17.10;99.90;;;;;;5045818;28;20020;-86
2021/08/27 10:14:11;;;;;;;8.60;3.00;;;17.10;99.90;;;;;;5046443;28;20025;-86
2021/08/27 10:16:37;;;;;;;5.82;3.13;;;17.10;99.90;;;;;;5046203;28;20025;-85
2021/08/27 10:19:03;;;;;;;6.65;2.60;;;17.60;99.90;;;;;;5047341;28;20028;-86
2021/08/27 10:21:31;;;;;;;9.75;4.10;;;17.50;99.90;;;;;;5050392;28;20082;-89
2021/08/27 10:23:57;;;;;;;7.82;3.42;;;17.50;99.90;;;;;;5047116;28;20493;-84
2021/08/27 10:26:26;;;;;;;9.18;3.30;;;17.20;99.90;;;;;;5048420;28;20045;-88
2021/08/27 10:28:52;;;;;;;9.85;3.45;;;17.00;99.90;;;;;;5047041;28;20056;-89
2021/08/27 10:31:18;;;;;;;7.88;3.47;;;16.60;99.90;;;;;;5047934;28;20017;-90
2021/08/27 10:33:43;;;;;;;9.98;3.47;;;16.50;99.90;;;;;;5049043;28;20035;-89
2021/08/27 10:36:21;;;;;;;10.68;3.63;;;16.20;99.90;;;;;;5041387;28;20108;-88
2021/08/27 10:38:51;;;;;;;6.10;2.83;;;16.20;99.90;;;;;;5048350;28;20033;-87
2021/08/27 10:41:35;;;;;;;8.10;3.83;;;16.10;99.90;;;;;;5048076;28;20056;-89
2021/08/27 10:44:01;;;;;;;;;;;16.20;99.90;;;;;;5046828;28;20029;-87
2021/08/27 10:46:45;;;;;;;10.43;3.28;;;16.00;99.90;;;;;;5045506;28;19909;-88
2021/08/27 10:49:11;;;;;;;;;;;16.30;99.90;;;;;;5043088;28;20033;-86
2021/08/27 10:51:39;;;;;;;9.45;3.10;;;16.30;99.90;;;;;;5046301;28;19905;-87
2021/08/27 10:54:06;;;;;;;8.07;3.22;;;16.50;99.90;;;;;;5047607;28;20021;-86
2021/08/27 10:56:50;;;;;;;16.25;3.10;;;16.50;99.90;;;;;;5041251;28;20033;-87
2021/08/27 10:59:18;;;;;;;11.85;2.63;;;16.60;99.90;;;;;;5046323;28;20566;-87
2021/08/27 11:02:00;;;;;;;8.80;3.60;;;16.50;99.90;;;;;;5050383;28;20039;-90
2021/08/27 11:04:30;;;;;;;7.60;3.30;;;16.30;99.90;;;;;;5049923;28;20056;-89
2021/08/27 11:07:03;;;;;;;8.35;3.25;;;16.20;99.90;;;;;;5046174;28;20025;-91
2021/08/27 11:09:30;;;;;;;;;;;16.40;99.90;;;;;;5050981;28;20017;-90
2021/08/27 11:12:12;;;;;;;13.23;4.57;;;16.90;99.90;;;;;;5049346;28;19930;-88
2021/08/27 11:14:40;;;;;;;8.55;2.85;;;17.90;99.90;;;;;;5048565;28;20021;-91
2021/08/27 11:17:07;;;;;;;13.18;3.60;;;18.50;99.90;;;;;;5046213;28;20478;-88
2021/08/27 11:19:37;;;;;;;7.53;3.28;;;18.30;99.90;;;;;;5046088;28;20032;-87
2021/08/27 11:22:09;;;;;;;8.27;3.20;;;18.60;99.90;;;;;;5047504;28;20481;-87
2021/08/27 11:24:35;;;;;;;8.38;2.80;;;18.90;99.90;;;;;;5047522;28;20053;-86
2021/08/27 11:27:09;;;;;;;5.70;2.72;;;19.30;99.90;;;;;;5045130;28;20037;-87
2021/08/27 11:29:40;;;;;;;8.30;2.90;;;19.60;99.90;;;;;;5048394;28;20025;-87
2021/08/27 11:32:13;;;;;;;7.78;2.72;;;19.20;99.90;;;;;;5052076;28;20017;-88
2021/08/27 11:35:01;;;;;;;7.40;2.35;;;18.80;99.90;;;;;;5050277;28;20017;-87
2021/08/27 11:37:31;;;;;;;6.72;3.08;;;18.50;99.90;;;;;;5044663;28;20078;-88
2021/08/27 11:39:58;;;;;;;6.35;3.05;;;18.60;99.90;;;;;;5050081;28;20036;-87
2021/08/27 11:42:24;;;;;;;5.93;2.67;;;18.40;99.90;;;;;;5051461;28;20037;-86
2021/08/27 11:45:19;;;;;;;5.35;2.60;;;18.10;99.90;;;;;;5050800;28;20041;-86
2021/08/27 11:47:55;;;;;;;5.38;2.88;;;17.90;99.90;;;;;;5048466;28;20033;-86
2021/08/27 11:50:23;;;;;;;5.68;2.47;;;17.90;99.90;;;;;;5050876;28;20103;-84
2021/08/27 11:52:50;;;;;;;5.07;2.10;;;18.10;99.90;;;;;;5054234;28;20102;-87
2021/08/27 11:55:17;;;;;;;6.65;2.30;;;18.40;99.90;;;;;;5051007;28;20021;-85
2021/08/27 11:57:56;;;;;;;10.15;2.25;;;18.70;99.90;;;;;;5044450;28;20117;-86
2021/08/27 12:00:39;;;;;;;2.97;1.80;;;18.60;99.90;;;;;;5049304;28;20052;-85
2021/08/27 12:03:05;;;;;;;6.85;2.75;;;18.70;99.90;;;;;;5049294;28;20024;-83
2021/08/27 12:05:32;;;;;;;4.13;2.30;;;18.80;99.90;;;;;;5043481;28;20036;-82
2021/08/27 12:08:02;;;;;;;5.57;2.20;;;19.00;99.90;;;;;;5048009;28;20029;-84
2021/08/27 12:10:33;;;;;;;8.85;2.00;;;18.90;99.90;;;;;;5043370;28;20113;-83
2021/08/27 12:13:00;;;;;;;7.30;2.03;;;19.50;99.90;;;;;;5040940;28;20029;-85
2021/08/27 12:15:32;;;;;;;7.60;1.90;;;19.40;99.90;;;;;;5048895;28;20032;-84
2021/08/27 12:18:03;;;;;;;4.88;1.90;;;19.30;99.90;;;;;;5043353;28;20410;-85
2021/08/27 12:20:30;;;;;;;2.97;1.80;;;19.30;99.90;;;;;;5048718;28;20025;-83
2021/08/27 12:23:01;;;;;;;4.35;1.88;;;19.20;99.90;;;;;;5049951;28;20028;-83
2021/08/27 12:25:30;;;;;;;6.32;1.83;;;19.20;99.90;;;;;;5049248;28;20060;-82
2021/08/27 12:27:57;;;;;;;9.27;1.70;;;19.50;99.90;;;;;;5049475;28;21347;-82
2021/08/27 12:30:24;;;;;;;3.67;1.55;;;19.80;99.90;;;;;;5049859;28;20493;-82
2021/08/27 12:32:52;;;;;;;3.42;1.55;;;20.90;99.90;;;;;;5049982;28;20033;-84
2021/08/27 12:35:21;;;;;;;7.25;2.05;;;21.30;99.90;;;;;;5049221;28;20028;-82
2021/08/27 12:37:49;;;;;;;3.05;1.35;;;21.60;99.90;;;;;;5049568;28;20039;-81
2021/08/27 12:40:18;;;;;;;5.00;1.48;;;21.20;99.90;;;;;;5049737;28;20230;-83
2021/08/27 12:43:01;;;;;;;5.70;1.92;;;20.60;99.90;;;;;;5049582;28;20036;-81
2021/08/27 12:45:28;;;;;;;2.63;1.10;;;20.30;99.90;;;;;;5050162;28;20029;-81
2021/08/27 12:48:06;;;;;;;4.43;1.60;;;19.70;99.90;;;;;;5046661;28;20037;-82
2021/08/27 12:50:42;;;;;;;2.35;1.27;;;19.80;99.90;;;;;;5049303;28;20067;-81
2021/08/27 12:53:07;;;;;;;3.42;1.45;;;20.80;99.90;;;;;;5049465;28;20429;-83
2021/08/27 12:55:33;;;;;;;4.65;1.48;;;22.10;99.90;;;;;;5049899;28;20112;-84